Time;durP1;ratioP1;P1;durP2;ratioP2;P2;SDS_P1;SDS_P2;PMS_P1;PMS_P2;Temp;Humidity;BMP_temperature;BMP_pressure;BME280_temperature;BME280_humidity;BME280_pressure;Samples;Min_cycle;Max_cycle;Signal;HPM_P1;HPM_P2
2022/05/19 00:02:00;;;;;;;6.00;5.05;;;;;;;17.55;54.49;101643.88;7396699;19;20569;-70
2022/05/19 00:04:29;;;;;;;7.35;5.32;;;;;;;17.50;54.49;101643.16;7397791;19;20388;-69
2022/05/19 00:06:57;;;;;;;10.90;5.28;;;;;;;17.47;54.91;101639.75;7395913;19;20022;-70
2022/05/19 00:09:26;;;;;;;5.88;4.93;;;;;;;17.40;54.62;101634.69;7397222;19;20039;-70
2022/05/19 00:11:57;;;;;;;5.70;4.82;;;;;;;17.36;54.54;101637.47;7397865;19;20018;-70
2022/05/19 00:14:25;;;;;;;7.70;4.70;;;;;;;17.32;54.61;101634.06;7397860;19;20031;-70
2022/05/19 00:16:57;;;;;;;6.82;5.15;;;;;;;17.28;54.59;101635.09;7397605;19;20040;-70
2022/05/19 00:19:27;;;;;;;6.72;5.70;;;;;;;17.23;54.88;101631.75;7396975;19;20010;-70
2022/05/19 00:21:55;;;;;;;11.68;5.47;;;;;;;17.20;54.92;101626.53;7397456;19;20018;-69
2022/05/19 00:24:24;;;;;;;6.10;5.50;;;;;;;17.17;55.09;101631.97;7397501;19;20018;-69
2022/05/19 00:26:52;;;;;;;7.20;5.15;;;;;;;17.13;55.30;101630.34;7395043;19;20496;-69
2022/05/19 00:29:20;;;;;;;8.63;6.70;;;;;;;17.10;55.41;101623.38;7395339;19;20022;-69
2022/05/19 00:31:48;;;;;;;6.13;5.55;;;;;;;17.07;55.04;101621.69;7395431;19;20022;-69
2022/05/19 00:34:19;;;;;;;9.23;5.25;;;;;;;17.04;55.44;101628.88;7396973;19;20019;-70
2022/05/19 00:36:47;;;;;;;7.55;5.40;;;;;;;17.01;55.10;101627.22;7397384;19;20027;-69
2022/05/19 00:39:16;;;;;;;5.85;5.35;;;;;;;16.98;55.56;101627.31;7396436;19;20022;-70
2022/05/19 00:41:45;;;;;;;8.02;5.35;;;;;;;16.96;55.44;101621.22;7396802;19;20018;-70
2022/05/19 00:44:15;;;;;;;7.00;5.03;;;;;;;16.91;55.71;101623.16;7395142;19;20019;-71
2022/05/19 00:46:48;;;;;;;6.78;5.10;;;;;;;16.88;55.57;101629.41;7395660;19;20038;-70
2022/05/19 00:49:22;;;;;;;9.00;5.07;;;;;;;16.84;55.92;101625.09;7396593;19;20039;-69
2022/05/19 00:51:57;;;;;;;6.82;5.40;;;;;;;16.82;55.58;101628.72;7394437;19;20422;-71
2022/05/19 00:54:29;;;;;;;5.55;4.53;;;;;;;16.78;55.80;101622.66;7394996;19;20018;-71
2022/05/19 00:57:02;;;;;;;6.88;5.03;;;;;;;16.73;56.09;101622.81;7395135;19;20027;-69
2022/05/19 00:59:36;;;;;;;7.45;5.45;;;;;;;16.71;56.02;101618.50;7395835;19;20026;-69
2022/05/19 01:02:04;;;;;;;6.82;5.18;;;;;;;16.66;55.95;101621.28;7396536;19;20022;-68
2022/05/19 01:04:41;;;;;;;6.18;4.70;;;;;;;16.64;56.07;101616.97;7395577;19;20509;-69
2022/05/19 01:07:15;;;;;;;5.88;4.95;;;;;;;16.60;56.33;101611.78;7395744;19;20490;-69
2022/05/19 01:09:44;;;;;;;6.68;4.85;;;;;;;16.57;56.15;101618.97;7395695;19;20019;-67
2022/05/19 01:12:13;;;;;;;5.25;4.75;;;;;;;16.55;56.18;101612.81;7395542;19;20481;-67
2022/05/19 01:14:41;;;;;;;6.53;5.05;;;;;;;16.51;55.94;101609.41;7396203;19;20015;-67
2022/05/19 01:17:10;;;;;;;8.43;5.15;;;;;;;16.48;56.43;101617.47;7395710;19;20015;-67
2022/05/19 01:19:45;;;;;;;6.63;4.85;;;;;;;16.44;56.26;101610.53;7393918;19;20035;-67
2022/05/19 01:22:22;;;;;;;7.95;5.80;;;;;;;16.43;56.58;101616.75;7395584;19;20019;-67
2022/05/19 01:25:00;;;;;;;8.23;5.20;;;;;;;16.38;56.75;101614.25;7395868;19;20026;-67
2022/05/19 01:27:31;;;;;;;5.57;5.07;;;;;;;16.35;57.07;101617.00;7394148;19;20018;-67
2022/05/19 01:29:59;;;;;;;6.65;5.20;;;;;;;16.31;57.11;101620.66;7393237;19;20502;-67
2022/05/19 01:32:30;;;;;;;5.53;5.03;;;;;;;16.28;56.85;101612.81;7395199;19;20019;-67
2022/05/19 01:34:59;;;;;;;6.85;5.45;;;;;;;16.26;56.99;101611.97;7395269;19;20022;-67
2022/05/19 01:37:28;;;;;;;7.75;5.45;;;;;;;16.24;57.19;101611.19;7395223;19;20015;-67
2022/05/19 01:40:03;;;;;;;7.80;5.55;;;;;;;16.21;57.19;101611.28;7393234;19;20023;-67
2022/05/19 01:42:46;;;;;;;5.90;5.32;;;;;;;16.19;57.34;101615.72;7394267;19;20383;-67
2022/05/19 01:45:29;;;;;;;7.13;5.65;;;;;;;16.15;57.76;101615.00;7393207;19;20026;-67
2022/05/19 01:48:03;;;;;;;6.87;5.73;;;;;;;16.10;57.61;101612.47;7395306;19;20015;-68
2022/05/19 01:50:37;;;;;;;7.30;5.72;;;;;;;16.08;58.01;101613.44;7393580;19;20032;-67
2022/05/19 01:53:12;;;;;;;6.22;5.63;;;;;;;16.03;57.90;101613.56;7394308;19;20506;-67
2022/05/19 01:55:48;;;;;;;7.55;5.88;;;;;;;15.96;58.39;101615.53;7393543;19;20431;-67
2022/05/19 01:58:24;;;;;;;6.47;5.93;;;;;;;15.93;58.54;101615.63;7395033;19;20370;-67
2022/05/19 02:00:57;;;;;;;7.25;6.05;;;;;;;15.89;59.07;101611.34;7399624;19;20080;-67
2022/05/19 02:03:43;;;;;;;5.95;5.45;;;;;;;15.85;59.27;101608.84;7399405;19;20040;-67
2022/05/19 02:06:15;;;;;;;6.38;5.75;;;;;;;15.80;59.30;101615.09;7402493;19;20019;-67
2022/05/19 02:08:48;;;;;;;10.30;6.20;;;;;;;15.75;59.71;101606.44;7399428;19;20035;-69
2022/05/19 02:11:24;;;;;;;6.60;6.00;;;;;;;15.70;59.67;101605.69;7399565;19;20037;-68
2022/05/19 02:13:56;;;;;;;6.93;6.30;;;;;;;15.64;59.86;101600.59;7400110;19;20018;-69
2022/05/19 02:16:24;;;;;;;6.32;5.78;;;;;;;15.59;59.89;101608.66;7401438;19;20014;-67
2022/05/19 02:18:54;;;;;;;9.32;5.65;;;;;;;15.55;60.25;101608.81;7402042;19;20018;-67
2022/05/19 02:21:22;;;;;;;10.50;6.05;;;;;;;15.51;60.57;101602.72;7398714;19;20400;-68
2022/05/19 02:23:51;;;;;;;7.35;6.13;;;;;;;15.46;60.72;101602.84;7401312;19;20027;-68
2022/05/19 02:26:19;;;;;;;8.13;6.47;;;;;;;15.44;60.92;101612.63;7402187;19;20014;-68
2022/05/19 02:28:51;;;;;;;7.55;6.22;;;;;;;15.38;61.09;101606.63;7400828;19;20014;-69
2022/05/19 02:31:22;;;;;;;7.85;6.63;;;;;;;15.34;61.25;101605.84;7398637;19;20022;-67
2022/05/19 02:33:50;;;;;;;10.18;6.90;;;;;;;15.29;61.62;101613.03;7397962;19;20018;-68
2022/05/19 02:36:18;;;;;;;8.55;7.05;;;;;;;15.25;61.91;101611.38;7397482;19;20022;-68
2022/05/19 02:38:46;;;;;;;7.45;6.75;;;;;;;15.20;62.14;101613.28;7400334;19;20018;-69
2022/05/19 02:41:14;;;;;;;8.55;7.03;;;;;;;15.15;62.33;101613.41;7400942;19;20018;-69
2022/05/19 02:43:42;;;;;;;8.07;7.10;;;;;;;15.09;62.48;101611.81;7397649;19;20018;-69
2022/05/19 02:46:11;;;;;;;8.98;7.35;;;;;;;15.05;62.87;101611.94;7400853;19;20014;-69
2022/05/19 02:48:41;;;;;;;7.88;6.85;;;;;;;15.01;62.97;101612.94;7400364;19;20482;-68
2022/05/19 02:51:09;;;;;;;8.25;7.45;;;;;;;14.97;63.14;101612.13;7398449;19;20031;-68
2022/05/19 02:53:38;;;;;;;9.45;7.20;;;;;;;14.92;63.45;101614.03;7400593;19;20031;-68
2022/05/19 02:56:06;;;;;;;8.23;7.43;;;;;;;14.87;63.59;101613.28;7397719;19;20035;-68
2022/05/19 02:58:34;;;;;;;7.53;6.72;;;;;;;14.83;63.70;101615.13;7397797;19;20036;-68
2022/05/19 03:01:02;;;;;;;7.80;6.72;;;;;;;14.80;63.68;101616.09;7397676;19;20026;-68
2022/05/19 03:03:30;;;;;;;7.72;6.55;;;;;;;14.77;63.90;101615.28;7400209;19;20228;-68
2022/05/19 03:06:02;;;;;;;7.03;6.32;;;;;;;14.73;63.92;101611.84;7400124;19;20042;-68
2022/05/19 03:08:30;;;;;;;7.35;6.40;;;;;;;14.69;63.88;101612.00;7400083;19;20376;-68
2022/05/19 03:10:58;;;;;;;6.95;5.90;;;;;;;14.66;63.85;101607.66;7396115;19;20035;-68
2022/05/19 03:13:27;;;;;;;7.07;5.90;;;;;;;14.62;63.90;101612.09;7397343;19;20040;-69
2022/05/19 03:15:55;;;;;;;6.30;5.80;;;;;;;14.57;63.55;101608.72;7396943;19;20481;-69
2022/05/19 03:18:23;;;;;;;6.38;5.45;;;;;;;14.55;63.40;101609.66;7399686;19;20019;-69
2022/05/19 03:20:52;;;;;;;8.05;5.05;;;;;;;14.53;63.19;101603.53;7396700;19;20410;-69
2022/05/19 03:23:22;;;;;;;7.95;5.70;;;;;;;14.49;63.19;101608.03;7400241;19;20018;-69
2022/05/19 03:25:51;;;;;;;6.13;5.53;;;;;;;14.47;63.28;101607.22;7397642;19;20018;-69
2022/05/19 03:28:19;;;;;;;7.10;6.40;;;;;;;14.47;63.46;101615.97;7397061;19;20014;-69
2022/05/19 03:30:47;;;;;;;6.65;5.95;;;;;;;14.45;63.64;101616.94;7396688;19;20014;-69
2022/05/19 03:33:16;;;;;;;8.35;5.93;;;;;;;14.43;63.64;101609.06;7399147;19;20037;-69
2022/05/19 03:35:44;;;;;;;7.03;6.35;;;;;;;14.42;63.66;101616.97;7396458;19;20023;-69
2022/05/19 03:38:13;;;;;;;5.75;5.18;;;;;;;14.42;63.53;101619.63;7398815;19;20032;-69
2022/05/19 03:40:44;;;;;;;6.72;5.80;;;;;;;14.42;63.61;101616.97;7396220;19;20018;-69
2022/05/19 03:43:25;;;;;;;8.07;5.72;;;;;;;14.42;63.50;101616.97;7396288;19;20015;-69
2022/05/19 03:45:54;;;;;;;9.15;4.90;;;;;;;14.42;63.34;101615.22;7396136;19;20018;-69
2022/05/19 03:48:22;;;;;;;8.38;5.97;;;;;;;14.43;63.32;101618.72;7397512;19;20398;-69
2022/05/19 03:50:50;;;;;;;6.03;5.43;;;;;;;14.42;63.27;101615.22;7396365;19;20022;-68
2022/05/19 03:53:19;;;;;;;9.57;6.38;;;;;;;14.44;62.98;101613.41;7395736;19;20022;-69
2022/05/19 03:55:49;;;;;;;9.07;5.72;;;;;;;14.44;63.01;101613.41;7397818;19;20031;-69
2022/05/19 03:58:17;;;;;;;6.78;6.07;;;;;;;14.47;63.08;101608.06;7396008;19;20510;-69
2022/05/19 04:00:46;;;;;;;8.02;5.63;;;;;;;14.49;62.92;101608.03;7395496;19;20022;-69
2022/05/19 04:03:14;;;;;;;7.38;5.35;;;;;;;14.50;62.95;101613.25;7397463;19;20018;-69
2022/05/19 04:05:42;;;;;;;8.25;5.45;;;;;;;14.53;62.38;101606.19;7397518;19;20039;-69
2022/05/19 04:08:10;;;;;;;7.00;5.18;;;;;;;14.55;62.34;101609.66;7397006;19;20026;-69
2022/05/19 04:10:42;;;;;;;8.93;5.90;;;;;;;14.56;62.27;101606.97;7395208;19;20035;-68
2022/05/19 04:13:13;;;;;;;6.00;5.40;;;;;;;14.57;62.08;101606.06;7398051;19;20019;-69
2022/05/19 04:15:41;;;;;;;5.78;5.18;;;;;;;14.62;62.17;101611.22;7397698;19;20022;-69
2022/05/19 04:18:10;;;;;;;6.72;4.72;;;;;;;14.62;61.90;101606.81;7396754;19;20482;-69
2022/05/19 04:20:38;;;;;;;6.30;4.50;;;;;;;14.66;61.82;101607.66;7394437;19;20474;-69
2022/05/19 04:23:06;;;;;;;5.20;4.70;;;;;;;14.68;61.66;101611.09;7395153;19;20036;-69
2022/05/19 04:25:35;;;;;;;5.28;4.78;;;;;;;14.71;61.46;101608.41;7395077;19;20014;-69
2022/05/19 04:28:04;;;;;;;7.32;4.93;;;;;;;14.73;61.29;101609.22;7396527;19;20018;-69
2022/05/19 04:30:35;;;;;;;6.38;5.18;;;;;;;14.77;61.19;101608.25;7394174;19;20477;-69
2022/05/19 04:33:04;;;;;;;5.30;4.30;;;;;;;14.82;60.95;101613.38;7396570;19;20014;-68
2022/05/19 04:35:32;;;;;;;5.07;4.20;;;;;;;14.85;60.79;101604.53;7394211;19;20022;-68
2022/05/19 04:38:01;;;;;;;5.88;4.22;;;;;;;14.88;60.66;101609.75;7393807;19;20046;-69
2022/05/19 04:40:30;;;;;;;5.85;5.03;;;;;;;14.93;60.47;101610.50;7393677;19;20381;-68
2022/05/19 04:42:58;;;;;;;5.22;4.13;;;;;;;14.97;60.54;101618.31;7395974;19;20018;-68
2022/05/19 04:45:26;;;;;;;7.82;4.68;;;;;;;15.01;60.46;101611.13;7394563;19;20018;-68
2022/05/19 04:47:57;;;;;;;8.10;4.95;;;;;;;15.08;60.36;101609.22;7394510;19;20030;-68
2022/05/19 04:50:25;;;;;;;5.32;4.38;;;;;;;15.16;60.24;101617.78;7394915;19;20079;-69
2022/05/19 04:52:53;;;;;;;6.03;4.60;;;;;;;15.21;60.21;101612.41;7393685;19;20047;-68
2022/05/19 04:55:22;;;;;;;6.85;5.32;;;;;;;15.27;60.02;101613.09;7395498;19;20019;-71
2022/05/19 04:57:50;;;;;;;5.85;5.10;;;;;;;15.35;60.13;101618.16;7393327;19;20026;-71
2022/05/19 05:00:18;;;;;;;12.02;7.70;;;;;;;15.43;59.77;101618.81;7392604;19;20018;-68
2022/05/19 05:02:47;;;;;;;6.43;4.78;;;;;;;15.52;59.58;101622.97;7392646;19;20458;-68
2022/05/19 05:05:18;;;;;;;4.53;4.05;;;;;;;15.60;59.70;101620.97;7394527;19;20018;-68
2022/05/19 05:08:07;;;;;;;5.35;3.83;;;;;;;15.70;59.16;101618.94;6284888;19;22272870;-69
2022/05/19 05:10:36;;;;;;;4.50;4.10;;;;;;;15.81;59.05;101621.28;7427886;19;20014;-70
2022/05/19 05:13:08;;;;;;;6.22;3.60;;;;;;;15.92;58.73;101621.84;7427769;19;20031;-69
2022/05/19 05:15:36;;;;;;;4.57;3.90;;;;;;;16.03;58.36;101628.59;7427304;19;20018;-68
2022/05/19 05:18:05;;;;;;;8.00;4.18;;;;;;;16.13;58.03;101620.31;7426702;19;20018;-68
2022/05/19 05:20:33;;;;;;;5.10;3.92;;;;;;;16.26;58.03;101615.50;7427008;19;20078;-70
2022/05/19 05:23:04;;;;;;;5.72;3.60;;;;;;;16.39;57.70;101612.44;7426371;19;20043;-70
2022/05/19 05:25:32;;;;;;;23.88;4.65;;;;;;;16.51;57.30;101619.16;7427240;19;20354;-68
2022/05/19 05:28:03;;;;;;;4.65;3.58;;;;;;;16.65;56.90;101622.19;7429368;19;20022;-70
2022/05/19 05:30:31;;;;;;;6.68;3.60;;;;;;;16.77;56.88;101618.28;7427439;19;20014;-68
2022/05/19 05:33:09;;;;;;;4.60;3.67;;;;;;;16.90;56.25;101624.03;7429379;19;20035;-68
2022/05/19 05:35:37;;;;;;;4.72;3.60;;;;;;;17.02;56.18;101622.75;7429890;19;20023;-68
2022/05/19 05:38:08;;;;;;;4.78;3.45;;;;;;;17.14;55.52;101618.84;7429862;19;20524;-68
2022/05/19 05:40:37;;;;;;;5.85;3.70;;;;;;;17.25;55.31;101621.97;7427060;19;20031;-68
2022/05/19 05:43:07;;;;;;;5.88;3.10;;;;;;;17.36;55.24;101627.75;7425270;19;20379;-68
2022/05/19 05:45:36;;;;;;;5.05;2.90;;;;;;;17.47;54.50;101637.09;7426449;19;20018;-67
2022/05/19 05:48:04;;;;;;;5.97;3.40;;;;;;;17.56;54.17;101623.50;7429517;19;20430;-68
2022/05/19 05:50:32;;;;;;;7.03;3.35;;;;;;;17.67;53.74;101631.91;7426453;19;20018;-69
2022/05/19 05:53:01;;;;;;;4.50;3.08;;;;;;;17.78;53.34;101630.66;7427277;19;20030;-69
2022/05/19 05:55:31;;;;;;;3.75;2.80;;;;;;;17.87;53.32;101627.66;7426493;19;20035;-68
2022/05/19 05:58:00;;;;;;;5.78;3.03;;;;;;;17.95;52.75;101633.56;7429740;19;20014;-68
2022/05/19 06:00:29;;;;;;;5.25;3.30;;;;;;;18.02;52.74;101627.09;7427184;19;20046;-68
2022/05/19 06:02:57;;;;;;;5.85;2.85;;;;;;;18.12;52.56;101618.75;7428909;19;20014;-68
2022/05/19 06:05:25;;;;;;;4.18;2.75;;;;;;;18.22;52.32;101628.06;7428748;19;20103;-68
2022/05/19 06:07:53;;;;;;;4.10;2.40;;;;;;;18.31;52.11;101626.84;7425771;19;20014;-68
2022/05/19 06:10:22;;;;;;;4.80;2.88;;;;;;;18.40;51.78;101626.50;7426027;19;20035;-69
2022/05/19 06:12:53;;;;;;;7.00;3.53;;;;;;;18.48;51.14;101621.72;7428941;19;20055;-69
2022/05/19 06:15:21;;;;;;;4.40;3.20;;;;;;;18.57;51.54;101620.47;7425774;19;20358;-69
2022/05/19 06:17:50;;;;;;;6.10;2.92;;;;;;;18.65;51.10;101626.34;7414366;19;20031;-69
2022/05/19 06:20:19;;;;;;;6.07;2.85;;;;;;;18.71;50.64;101626.06;7396759;19;20015;-69
2022/05/19 06:22:48;;;;;;;3.42;2.88;;;;;;;18.80;50.69;101618.66;7399029;19;20018;-69
2022/05/19 06:25:21;;;;;;;6.47;3.05;;;;;;;18.87;50.48;101622.78;7398654;19;20022;-68
2022/05/19 06:27:52;;;;;;;5.28;3.03;;;;;;;18.94;50.59;101604.78;7396830;19;20019;-68
2022/05/19 06:30:23;;;;;;;2.72;2.53;;;;;;;19.01;50.21;101620.41;7396928;19;20026;-68
2022/05/19 06:32:52;;;;;;;3.22;2.67;;;;;;;19.11;49.96;101622.66;7396463;19;20031;-68
2022/05/19 06:35:22;;;;;;;3.50;2.50;;;;;;;19.18;49.87;101622.34;7396823;19;20022;-68
2022/05/19 06:37:50;;;;;;;6.80;2.75;;;;;;;19.25;49.42;101622.09;7399256;19;20031;-69
2022/05/19 06:40:19;;;;;;;7.20;3.00;;;;;;;19.33;49.47;101619.94;7396031;19;20026;-69
2022/05/19 06:42:48;;;;;;;5.82;2.95;;;;;;;19.41;49.42;101620.47;7396954;19;20074;-69
2022/05/19 06:45:22;;;;;;;5.22;2.92;;;;;;;19.48;48.87;101624.56;7398788;19;20014;-68
2022/05/19 06:47:50;;;;;;;;;;;;;;;19.55;49.36;101614.50;7398448;19;20033;-68
2022/05/19 06:50:19;;;;;;;3.83;2.67;;;;;;;19.62;49.30;101607.09;7396886;19;19939;-69
2022/05/19 06:52:50;;;;;;;5.28;2.90;;;;;;;19.67;48.99;101600.63;7399338;19;20027;-69
2022/05/19 06:55:19;;;;;;;4.70;3.00;;;;;;;19.73;48.65;101604.81;7399473;19;20015;-69
2022/05/19 06:57:47;;;;;;;4.43;2.47;;;;;;;19.82;49.01;101606.19;7396428;19;20394;-68
2022/05/19 07:00:21;;;;;;;5.80;3.13;;;;;;;19.88;48.60;101608.59;7397372;19;20018;-68
2022/05/19 07:02:51;;;;;;;3.95;3.10;;;;;;;19.95;48.63;101604.66;7398864;19;20019;-69
2022/05/19 07:05:22;;;;;;;5.13;2.70;;;;;;;20.01;48.23;101593.72;7396650;19;20037;-69
2022/05/19 07:07:51;;;;;;;3.75;2.70;;;;;;;20.07;48.45;101597.03;7396778;19;20027;-69
2022/05/19 07:10:21;;;;;;;4.55;2.83;;;;;;;20.14;48.56;101601.13;7395728;19;20355;-69
2022/05/19 07:12:50;;;;;;;3.42;2.60;;;;;;;20.22;48.45;101601.63;7396248;19;20019;-68
2022/05/19 07:15:22;;;;;;;5.50;3.25;;;;;;;20.28;47.83;101592.47;7397990;19;20018;-69
2022/05/19 07:17:50;;;;;;;4.75;2.63;;;;;;;20.34;48.09;101592.16;7396340;19;20021;-69
2022/05/19 07:23:00;;;;;;;3.85;2.95;;;;;;;20.47;47.84;101592.41;7397784;19;20006;-69
2022/05/19 07:25:29;;;;;;;7.03;2.80;;;;;;;20.53;47.28;101591.25;7397920;19;20022;-69
2022/05/19 07:27:57;;;;;;;3.92;2.72;;;;;;;20.56;47.59;101591.97;7396161;19;20035;-68
2022/05/19 07:30:28;;;;;;;5.10;2.75;;;;;;;20.62;47.20;101591.63;7393304;19;20015;-69
2022/05/19 07:32:57;;;;;;;5.63;2.97;;;;;;;20.67;47.36;101586.97;7396014;19;20023;-68
2022/05/19 07:35:26;;;;;;;2.90;2.30;;;;;;;20.76;47.37;101587.44;7394855;19;20015;-69
2022/05/19 07:37:54;;;;;;;4.78;2.90;;;;;;;20.82;47.34;101584.47;7397360;19;20074;-69
2022/05/19 07:40:23;;;;;;;5.95;3.00;;;;;;;20.88;47.30;101584.16;7395029;19;20026;-68
2022/05/19 07:42:51;;;;;;;5.85;3.00;;;;;;;20.94;46.67;101583.84;7396557;19;20039;-68
2022/05/19 07:45:19;;;;;;;4.70;3.00;;;;;;;20.99;46.77;101586.25;7396987;19;20014;-68
2022/05/19 07:47:50;;;;;;;3.00;2.70;;;;;;;21.02;45.86;101593.25;7395171;19;20013;-69
2022/05/19 07:50:18;;;;;;;6.25;2.80;;;;;;;21.04;46.58;101583.34;7396240;19;20031;-68
2022/05/19 07:52:46;;;;;;;3.85;2.95;;;;;;;21.05;46.49;101585.06;7395454;19;20011;-68
2022/05/19 07:55:14;;;;;;;4.05;2.65;;;;;;;21.09;46.18;101581.28;7395402;19;20015;-68
2022/05/19 07:57:43;;;;;;;6.75;3.03;;;;;;;21.11;46.05;101577.59;7397234;19;20029;-68
2022/05/19 08:00:11;;;;;;;6.75;3.00;;;;;;;21.13;45.54;101570.38;7395711;19;20032;-69
2022/05/19 08:02:40;;;;;;;4.60;2.70;;;;;;;21.19;46.00;101569.19;7397077;19;20030;-70
2022/05/19 08:05:11;;;;;;;6.75;3.00;;;;;;;21.25;45.79;101568.00;7396587;19;20011;-70
2022/05/19 08:07:39;;;;;;;3.38;3.03;;;;;;;21.31;45.92;101571.19;7394609;19;20010;-70
2022/05/19 08:10:24;;;;;;;7.72;3.22;;;;;;;21.38;45.53;101574.41;7395223;19;20018;-69
2022/05/19 08:15:40;;;;;;;6.85;2.70;;;;;;;21.52;45.16;101572.78;7396766;19;20347;-70
2022/05/19 08:18:11;;;;;;;4.10;2.95;;;;;;;21.57;45.12;101565.41;7396574;19;20028;-69
2022/05/19 08:20:45;;;;;;;3.22;2.55;;;;;;;21.64;45.13;101556.97;7394499;19;20023;-69
2022/05/19 08:23:18;;;;;;;8.48;3.60;;;;;;;21.73;45.39;101560.09;7395830;19;20039;-69
2022/05/19 08:25:47;;;;;;;3.67;3.00;;;;;;;21.82;45.27;101564.06;7395910;19;20412;-70
2022/05/19 08:28:16;;;;;;;3.92;3.25;;;;;;;21.90;44.94;101565.34;7394410;19;20027;-70
2022/05/19 08:30:47;;;;;;;7.07;2.80;;;;;;;22.00;44.66;101567.47;7393279;19;20021;-70
2022/05/19 08:33:16;;;;;;;5.75;2.90;;;;;;;22.08;44.89;101555.41;7396442;19;20036;-69
2022/05/19 08:35:47;;;;;;;3.83;2.35;;;;;;;22.18;44.84;101569.09;7395383;19;20037;-69
2022/05/19 08:38:15;;;;;;;3.78;2.30;;;;;;;22.26;44.62;101563.31;7395939;19;20098;-69
2022/05/19 08:40:47;;;;;;;3.78;2.15;;;;;;;22.34;43.86;101554.84;7393112;19;20032;-70
2022/05/19 08:43:18;;;;;;;6.93;2.63;;;;;;;22.41;43.86;101561.59;7396389;19;20018;-69
2022/05/19 08:45:50;;;;;;;6.55;2.65;;;;;;;22.49;43.63;101559.31;7394204;19;20078;-69
2022/05/19 08:48:22;;;;;;;4.63;2.30;;;;;;;22.56;42.66;101563.34;7394060;19;20023;-69
2022/05/19 08:50:57;;;;;;;3.15;2.53;;;;;;;22.64;42.50;101557.53;7393723;19;20035;-69
2022/05/19 08:53:28;;;;;;;3.78;2.42;;;;;;;22.72;42.61;101546.38;7395409;19;20014;-70
2022/05/19 08:56:00;;;;;;;5.15;2.63;;;;;;;22.80;42.44;101552.13;7395111;19;20060;-70
2022/05/19 08:58:41;;;;;;;4.27;2.50;;;;;;;22.86;41.94;101554.44;7394665;19;20014;-71
2022/05/19 09:01:16;;;;;;;4.10;2.45;;;;;;;22.95;41.82;101555.69;7394216;19;20425;-69
2022/05/19 09:03:54;;;;;;;3.65;2.45;;;;;;;23.02;41.97;101550.81;7394112;19;20022;-69
2022/05/19 09:09:43;;;;;;;3.55;2.45;;;;;;;23.21;41.69;101547.91;7392007;19;20022;-69
2022/05/19 09:12:16;;;;;;;4.22;2.33;;;;;;;23.27;40.78;101542.16;7394607;19;20367;-69
2022/05/19 09:14:44;;;;;;;3.20;2.50;;;;;;;23.33;41.13;101544.44;7393856;19;20015;-69
2022/05/19 09:17:14;;;;;;;3.60;2.55;;;;;;;23.42;41.70;101548.38;7394005;19;20014;-69
2022/05/19 09:19:47;;;;;;;4.97;2.50;;;;;;;23.51;41.27;101547.78;7392501;19;20032;-69
2022/05/19 09:22:21;;;;;;;5.70;2.50;;;;;;;23.61;40.70;101539.13;7393393;19;20022;-69
2022/05/19 09:24:52;;;;;;;4.63;3.10;;;;;;;23.71;40.82;101534.94;7394361;19;20032;-69
2022/05/19 09:27:22;;;;;;;3.78;2.47;;;;;;;23.82;40.43;101537.75;7391859;19;20027;-69
2022/05/19 09:29:53;;;;;;;7.63;2.63;;;;;;;23.91;39.82;101531.81;7391633;19;20018;-68
2022/05/19 09:32:27;;;;;;;9.45;2.97;;;;;;;23.99;39.56;101527.78;7391360;19;20419;-68
2022/05/19 09:35:07;;;;;;;6.13;2.70;;;;;;;24.10;39.54;101532.41;7393864;19;20036;-68
2022/05/19 09:37:44;;;;;;;3.40;2.38;;;;;;;24.20;39.23;101529.03;7393606;19;20097;-68
2022/05/19 09:40:25;;;;;;;5.28;2.70;;;;;;;24.33;38.00;101528.22;7391157;19;20015;-68
2022/05/19 09:42:59;;;;;;;3.85;2.17;;;;;;;24.47;38.18;101533.47;7393681;19;20031;-68
2022/05/19 09:45:29;;;;;;;5.60;2.47;;;;;;;24.58;37.81;101524.72;7393082;19;20513;-68
2022/05/19 09:48:01;;;;;;;3.95;2.20;;;;;;;24.67;37.36;101528.63;7391846;19;20039;-68
2022/05/19 09:50:32;;;;;;;3.95;2.33;;;;;;;24.73;36.99;101530.84;7391541;19;20010;-68
2022/05/19 09:53:07;;;;;;;3.63;2.10;;;;;;;24.83;36.70;101528.38;7396167;19;20014;-69
2022/05/19 09:55:41;;;;;;;3.30;2.65;;;;;;;24.91;36.93;101522.47;7401104;19;20033;-69
2022/05/19 09:58:11;;;;;;;3.70;2.47;;;;;;;24.98;37.39;101521.09;7400658;19;20014;-70
2022/05/19 10:00:45;;;;;;;4.57;2.78;;;;;;;25.09;37.19;101518.50;7398587;19;20126;-67
2022/05/19 10:03:24;;;;;;;4.85;2.47;;;;;;;25.17;37.17;101518.81;7401316;19;20041;-70
2022/05/19 10:05:56;;;;;;;4.28;2.17;;;;;;;25.24;36.86;101510.31;7400544;19;20508;-70
2022/05/19 10:08:38;;;;;;;5.07;2.63;;;;;;;25.33;36.99;101512.34;7397168;19;20011;-68
2022/05/19 10:11:09;;;;;;;4.93;2.55;;;;;;;25.43;37.13;101501.84;7397537;19;20018;-68
2022/05/19 10:13:41;;;;;;;5.18;2.50;;;;;;;25.50;36.14;101511.13;7397569;19;20019;-68
2022/05/19 10:16:18;;;;;;;5.78;2.17;;;;;;;25.58;36.09;101510.56;7399181;19;20015;-68
2022/05/19 10:19:01;;;;;;;5.43;2.65;;;;;;;25.64;36.50;101515.50;7397845;19;20019;-69
2022/05/19 10:21:43;;;;;;;3.60;2.30;;;;;;;25.69;36.49;101499.88;7397372;19;20022;-69
2022/05/19 10:24:27;;;;;;;4.72;2.17;;;;;;;25.75;35.23;101499.44;7398917;19;20015;-70
2022/05/19 10:32:55;;;;;;;5.70;2.38;;;;;;;25.89;35.06;101497.56;7399764;19;20015;-69
2022/05/19 10:35:30;;;;;;;5.82;2.42;;;;;;;25.92;34.97;101490.13;7397163;19;20011;-68
2022/05/19 10:38:17;;;;;;;3.55;2.42;;;;;;;25.97;35.70;101484.38;7399989;19;20018;-69
2022/05/19 10:41:05;;;;;;;4.97;2.40;;;;;;;26.04;34.56;101488.34;7397474;19;20019;-69
2022/05/19 10:43:47;;;;;;;4.55;2.45;;;;;;;26.12;34.11;101487.78;7396843;19;20418;-70
2022/05/19 10:46:17;;;;;;;4.80;2.50;;;;;;;26.17;34.57;101475.72;7399903;19;20018;-68
2022/05/19 10:49:09;;;;;;;5.60;2.58;;;;;;;26.23;34.82;101470.84;7398037;19;20010;-69
2022/05/19 10:51:55;;;;;;;6.63;2.42;;;;;;;26.29;34.82;101459.59;7399833;19;20021;-70
2022/05/19 10:54:42;;;;;;;3.88;2.15;;;;;;;26.37;34.57;101459.00;7399485;19;20474;-68
2022/05/19 10:57:42;;;;;;;2.92;2.00;;;;;;;26.41;33.81;101447.03;7396201;19;20521;-68
2022/05/19 11:00:18;;;;;;;3.80;2.28;;;;;;;26.47;33.76;101451.94;7397052;19;20020;-69
2022/05/19 11:03:19;;;;;;;3.72;2.75;;;;;;;26.54;33.74;101450.47;7399469;19;20143;-69
2022/05/19 11:05:53;;;;;;;3.08;2.47;;;;;;;26.63;33.34;101454.28;7396082;19;20540;-69
2022/05/19 11:08:39;;;;;;;3.50;2.10;;;;;;;26.75;33.07;101439.00;7395773;19;20031;-69
2022/05/19 11:11:18;;;;;;;3.20;2.53;;;;;;;26.87;32.34;101440.72;7395514;19;20431;-68
2022/05/19 11:14:02;;;;;;;3.08;2.17;;;;;;;27.01;31.41;101433.34;7398189;19;20027;-70
2022/05/19 11:16:42;;;;;;;2.47;2.17;;;;;;;27.14;31.76;101440.31;7396791;19;20010;-68
2022/05/19 11:19:18;;;;;;;3.58;2.20;;;;;;;27.25;31.67;101434.06;7395513;19;20018;-68
2022/05/19 11:21:53;;;;;;;3.47;2.50;;;;;;;27.37;31.23;101431.34;7396045;19;20029;-69
2022/05/19 11:24:26;;;;;;;3.35;2.10;;;;;;;27.48;31.56;101429.50;7397746;19;20023;-69
2022/05/19 11:27:00;;;;;;;3.60;1.88;;;;;;;27.58;30.40;101416.13;7396245;19;20060;-68
2022/05/19 11:29:36;;;;;;;2.17;1.73;;;;;;;27.63;30.77;101411.19;7394993;19;20018;-68
2022/05/19 11:32:09;;;;;;;3.85;1.70;;;;;;;27.66;29.93;101407.38;7397599;19;20015;-68
2022/05/19 11:34:48;;;;;;;5.70;2.10;;;;;;;27.71;30.71;101407.00;7396900;19;20394;-69
2022/05/19 11:37:26;;;;;;;10.80;2.80;;;;;;;27.76;30.07;101411.00;7395742;19;20026;-69
2022/05/19 11:40:03;;;;;;;5.47;2.20;;;;;;;27.80;30.42;101404.41;7396071;19;20019;-75
2022/05/19 11:42:42;;;;;;;7.32;2.25;;;;;;;27.88;29.74;101401.03;7395773;19;20015;-70
2022/05/19 11:45:19;;;;;;;2.95;1.95;;;;;;;27.97;29.93;101385.91;7397389;19;20031;-70
2022/05/19 11:56:14;;;;;;;2.42;1.90;;;;;;;28.48;30.31;101372.59;7397254;19;20007;-71
2022/05/19 11:58:42;;;;;;;3.78;2.33;;;;;;;28.58;29.73;101384.28;7397155;19;20035;-70
2022/05/19 12:01:21;;;;;;;6.00;2.35;;;;;;;28.66;29.89;101376.34;7397080;19;20023;-70
2022/05/19 12:03:59;;;;;;;2.90;2.20;;;;;;;28.75;29.07;101380.09;7397193;19;20018;-70
2022/05/19 12:06:31;;;;;;;3.08;2.05;;;;;;;28.80;29.77;101369.75;7396532;19;20019;-70
2022/05/19 12:09:03;;;;;;;3.53;2.55;;;;;;;28.82;29.37;101380.44;7395804;19;20014;-70